sensor_id;sensor_type;location;lat;lon;timestamp;pressure;altitude;pressure_sealevel;temperature;humidity
3250;BME280;1637;42.020;23.992;2023-03-14T00:00:24;93037.16;;;-0.23;85.13
3250;BME280;1637;42.020;23.992;2023-03-14T00:02:52;93027.00;;;-0.57;85.66
3250;BME280;1637;42.020;23.992;2023-03-14T00:05:19;93024.16;;;-0.64;85.92
3250;BME280;1637;42.020;23.992;2023-03-14T00:07:47;93023.31;;;-0.44;84.60
3250;BME280;1637;42.020;23.992;2023-03-14T00:10:14;93007.97;;;-0.18;82.29
3250;BME280;1637;42.020;23.992;2023-03-14T00:12:41;93016.13;;;0.14;81.79
3250;BME280;1637;42.020;23.992;2023-03-14T00:15:09;93014.38;;;0.18;81.60
3250;BME280;1637;42.020;23.992;2023-03-14T00:17:36;93006.91;;;0.20;80.59
3250;BME280;1637;42.020;23.992;2023-03-14T00:20:05;92994.81;;;0.31;80.33
3250;BME280;1637;42.020;23.992;2023-03-14T00:22:35;92996.38;;;0.20;79.95
3250;BME280;1637;42.020;23.992;2023-03-14T00:25:05;93003.16;;;0.33;79.26
3250;BME280;1637;42.020;23.992;2023-03-14T00:27:32;92996.47;;;0.36;78.91
3250;BME280;1637;42.020;23.992;2023-03-14T00:29:59;92987.91;;;0.39;78.20
3250;BME280;1637;42.020;23.992;2023-03-14T00:32:26;92986.69;;;0.36;78.52
3250;BME280;1637;42.020;23.992;2023-03-14T00:34:53;92982.41;;;0.31;78.61
3250;BME280;1637;42.020;23.992;2023-03-14T00:37:20;92966.72;;;0.23;79.14
3250;BME280;1637;42.020;23.992;2023-03-14T00:39:47;92966.63;;;0.19;79.98
3250;BME280;1637;42.020;23.992;2023-03-14T00:42:15;92960.38;;;0.12;81.28
3250;BME280;1637;42.020;23.992;2023-03-14T00:44:42;92958.06;;;0.10;81.85
3250;BME280;1637;42.020;23.992;2023-03-14T00:47:09;92905.56;;;-0.11;80.65
3250;BME280;1637;42.020;23.992;2023-03-14T00:49:35;92950.41;;;-0.31;82.35
3250;BME280;1637;42.020;23.992;2023-03-14T00:52:03;92948.41;;;-0.59;84.18
3250;BME280;1637;42.020;23.992;2023-03-14T00:54:30;92945.47;;;-0.45;83.61
3250;BME280;1637;42.020;23.992;2023-03-14T00:56:56;92929.69;;;-0.33;83.64
3250;BME280;1637;42.020;23.992;2023-03-14T00:59:24;92929.69;;;-0.45;82.72
3250;BME280;1637;42.020;23.992;2023-03-14T01:01:51;92892.16;;;-0.91;85.05
3250;BME280;1637;42.020;23.992;2023-03-14T01:04:18;92923.78;;;-0.99;88.32
3250;BME280;1637;42.020;23.992;2023-03-14T01:06:45;92916.28;;;-0.77;87.74
3250;BME280;1637;42.020;23.992;2023-03-14T01:09:12;92923.72;;;-0.91;88.16
3250;BME280;1637;42.020;23.992;2023-03-14T01:11:38;92919.81;;;-1.18;88.63
3250;BME280;1637;42.020;23.992;2023-03-14T01:14:05;92882.75;;;-1.70;90.06
3250;BME280;1637;42.020;23.992;2023-03-14T01:16:34;92912.13;;;-1.23;90.92
3250;BME280;1637;42.020;23.992;2023-03-14T01:19:02;92903.25;;;-1.18;89.44
3250;BME280;1637;42.020;23.992;2023-03-14T01:21:31;92873.56;;;-1.64;90.63
3250;BME280;1637;42.020;23.992;2023-03-14T01:23:59;92901.16;;;-1.58;91.96
3250;BME280;1637;42.020;23.992;2023-03-14T01:26:28;92905.13;;;-1.52;92.17
3250;BME280;1637;42.020;23.992;2023-03-14T01:28:56;92898.00;;;-1.30;90.65
3250;BME280;1637;42.020;23.992;2023-03-14T01:31:24;92898.78;;;-1.18;90.24
3250;BME280;1637;42.020;23.992;2023-03-14T01:33:52;92893.38;;;-1.33;90.64
3250;BME280;1637;42.020;23.992;2023-03-14T01:36:19;92900.31;;;-1.17;90.30
3250;BME280;1637;42.020;23.992;2023-03-14T01:38:46;92893.91;;;-1.07;90.20
3250;BME280;1637;42.020;23.992;2023-03-14T01:41:15;92889.34;;;-0.86;89.25
3250;BME280;1637;42.020;23.992;2023-03-14T01:43:42;92870.94;;;-0.86;86.78
3250;BME280;1637;42.020;23.992;2023-03-14T01:46:25;92892.16;;;-0.79;86.61
3250;BME280;1637;42.020;23.992;2023-03-14T01:48:58;92877.91;;;-1.47;91.26
3250;BME280;1637;42.020;23.992;2023-03-14T01:51:30;92830.91;;;-1.94;92.69
3250;BME280;1637;42.020;23.992;2023-03-14T01:54:06;92880.16;;;-1.79;93.82
3250;BME280;1637;42.020;23.992;2023-03-14T01:56:35;92880.75;;;-1.94;96.09
3250;BME280;1637;42.020;23.992;2023-03-14T01:59:04;92875.00;;;-1.87;94.90
3250;BME280;1637;42.020;23.992;2023-03-14T02:01:34;92876.88;;;-1.88;94.19
3250;BME280;1637;42.020;23.992;2023-03-14T02:04:05;92865.59;;;-2.30;96.19
3250;BME280;1637;42.020;23.992;2023-03-14T02:06:40;92873.38;;;-1.80;93.85
3250;BME280;1637;42.020;23.992;2023-03-14T02:09:08;92874.66;;;-1.86;92.26
3250;BME280;1637;42.020;23.992;2023-03-14T02:11:35;92871.78;;;-2.34;95.28
3250;BME280;1637;42.020;23.992;2023-03-14T02:14:03;92867.31;;;-1.71;93.44
3250;BME280;1637;42.020;23.992;2023-03-14T02:16:31;92875.19;;;-1.71;91.59
3250;BME280;1637;42.020;23.992;2023-03-14T02:18:57;92875.94;;;-1.71;92.06
3250;BME280;1637;42.020;23.992;2023-03-14T02:21:35;92871.94;;;-1.56;91.49
3250;BME280;1637;42.020;23.992;2023-03-14T02:24:09;92868.19;;;-1.34;90.00
3250;BME280;1637;42.020;23.992;2023-03-14T02:26:43;92872.28;;;-1.25;89.07
3250;BME280;1637;42.020;23.992;2023-03-14T02:29:12;92877.13;;;-1.02;87.38
3250;BME280;1637;42.020;23.992;2023-03-14T02:31:39;92876.16;;;-0.98;86.75
3250;BME280;1637;42.020;23.992;2023-03-14T02:34:06;92875.94;;;-0.81;85.51
3250;BME280;1637;42.020;23.992;2023-03-14T02:36:33;92884.84;;;-0.85;84.61
3250;BME280;1637;42.020;23.992;2023-03-14T02:39:06;92877.94;;;-0.90;85.13
3250;BME280;1637;42.020;23.992;2023-03-14T02:41:34;92877.78;;;-1.51;87.72
3250;BME280;1637;42.020;23.992;2023-03-14T02:44:01;92870.25;;;-1.73;90.59
3250;BME280;1637;42.020;23.992;2023-03-14T02:46:29;92867.06;;;-1.79;92.69
3250;BME280;1637;42.020;23.992;2023-03-14T02:48:58;92868.53;;;-1.69;92.93
3250;BME280;1637;42.020;23.992;2023-03-14T02:51:27;92876.25;;;-1.52;91.86
3250;BME280;1637;42.020;23.992;2023-03-14T02:53:55;92874.16;;;-1.79;92.46
3250;BME280;1637;42.020;23.992;2023-03-14T02:56:22;92864.59;;;-1.84;93.93
3250;BME280;1637;42.020;23.992;2023-03-14T02:58:49;92875.50;;;-1.73;94.37
3250;BME280;1637;42.020;23.992;2023-03-14T03:01:15;92866.28;;;-2.21;94.86
3250;BME280;1637;42.020;23.992;2023-03-14T03:03:44;92923.72;;;-1.98;94.79
3250;BME280;1637;42.020;23.992;2023-03-14T03:06:10;92835.19;;;-2.10;93.78
3250;BME280;1637;42.020;23.992;2023-03-14T03:08:37;92824.75;;;-2.19;93.52
3250;BME280;1637;42.020;23.992;2023-03-14T03:11:05;92869.34;;;-1.77;92.50
3250;BME280;1637;42.020;23.992;2023-03-14T03:13:32;92869.38;;;-1.98;93.35
3250;BME280;1637;42.020;23.992;2023-03-14T03:15:58;92860.13;;;-2.25;95.26
3250;BME280;1637;42.020;23.992;2023-03-14T03:18:25;92866.16;;;-2.03;94.88
3250;BME280;1637;42.020;23.992;2023-03-14T03:20:53;92867.25;;;-2.04;95.12
3250;BME280;1637;42.020;23.992;2023-03-14T03:23:20;92869.03;;;-1.96;93.85
3250;BME280;1637;42.020;23.992;2023-03-14T03:25:51;92876.97;;;-1.84;93.19
3250;BME280;1637;42.020;23.992;2023-03-14T03:28:18;92797.69;;;-2.73;93.70
3250;BME280;1637;42.020;23.992;2023-03-14T03:30:45;92865.97;;;-1.98;93.77
3250;BME280;1637;42.020;23.992;2023-03-14T03:33:12;92869.69;;;-1.99;93.90
3250;BME280;1637;42.020;23.992;2023-03-14T03:35:43;92873.31;;;-1.71;92.54
3250;BME280;1637;42.020;23.992;2023-03-14T03:38:12;92876.56;;;-1.53;90.77
3250;BME280;1637;42.020;23.992;2023-03-14T03:40:39;92874.47;;;-1.81;91.41
3250;BME280;1637;42.020;23.992;2023-03-14T03:43:06;92866.09;;;-2.16;94.21
3250;BME280;1637;42.020;23.992;2023-03-14T03:45:32;92858.16;;;-2.07;94.25
3250;BME280;1637;42.020;23.992;2023-03-14T03:47:59;92867.44;;;-1.89;93.05
3250;BME280;1637;42.020;23.992;2023-03-14T03:50:26;92862.81;;;-1.71;91.20
3250;BME280;1637;42.020;23.992;2023-03-14T03:52:53;92859.94;;;-1.99;91.70
3250;BME280;1637;42.020;23.992;2023-03-14T03:55:21;92853.47;;;-2.01;93.12
3250;BME280;1637;42.020;23.992;2023-03-14T03:57:47;92861.53;;;-2.07;93.35
3250;BME280;1637;42.020;23.992;2023-03-14T04:00:14;92854.44;;;-2.27;94.91
3250;BME280;1637;42.020;23.992;2023-03-14T04:02:41;92857.66;;;-2.21;95.14
3250;BME280;1637;42.020;23.992;2023-03-14T04:05:08;92851.00;;;-1.98;92.99
3250;BME280;1637;42.020;23.992;2023-03-14T04:07:35;92858.38;;;-2.12;93.46
3250;BME280;1637;42.020;23.992;2023-03-14T04:10:03;92851.50;;;-2.04;92.79
3250;BME280;1637;42.020;23.992;2023-03-14T04:12:31;92854.22;;;-2.43;95.24
3250;BME280;1637;42.020;23.992;2023-03-14T04:14:58;92852.38;;;-2.42;97.56
3250;BME280;1637;42.020;23.992;2023-03-14T04:17:25;92851.56;;;-2.34;96.72
3250;BME280;1637;42.020;23.992;2023-03-14T04:19:51;92839.22;;;-2.33;97.24
3250;BME280;1637;42.020;23.992;2023-03-14T04:22:19;92841.72;;;-2.37;98.23
3250;BME280;1637;42.020;23.992;2023-03-14T04:24:45;92821.94;;;-1.93;94.30
3250;BME280;1637;42.020;23.992;2023-03-14T04:27:12;92839.22;;;-1.92;93.63
3250;BME280;1637;42.020;23.992;2023-03-14T04:29:41;92839.09;;;-2.16;94.94
3250;BME280;1637;42.020;23.992;2023-03-14T04:32:08;92843.69;;;-2.55;97.22
3250;BME280;1637;42.020;23.992;2023-03-14T04:34:35;92792.63;;;-2.78;98.01
3250;BME280;1637;42.020;23.992;2023-03-14T04:37:01;92835.63;;;-2.50;96.79
3250;BME280;1637;42.020;23.992;2023-03-14T04:39:28;92838.25;;;-2.50;98.18
3250;BME280;1637;42.020;23.992;2023-03-14T04:41:55;92843.28;;;-2.45;98.24
3250;BME280;1637;42.020;23.992;2023-03-14T04:44:22;92838.81;;;-2.44;98.50
3250;BME280;1637;42.020;23.992;2023-03-14T04:46:50;92837.91;;;-2.48;97.08
3250;BME280;1637;42.020;23.992;2023-03-14T04:49:17;92846.13;;;-2.50;98.65
3250;BME280;1637;42.020;23.992;2023-03-14T04:51:43;92840.09;;;-2.50;97.54
3250;BME280;1637;42.020;23.992;2023-03-14T04:54:10;92840.03;;;-2.21;96.91
3250;BME280;1637;42.020;23.992;2023-03-14T04:56:37;92838.44;;;-1.71;94.01
3250;BME280;1637;42.020;23.992;2023-03-14T04:59:04;92854.22;;;-1.26;90.68
3250;BME280;1637;42.020;23.992;2023-03-14T05:01:31;92844.75;;;-0.46;86.40
3250;BME280;1637;42.020;23.992;2023-03-14T05:03:59;92855.94;;;0.04;82.78
3250;BME280;1637;42.020;23.992;2023-03-14T05:06:26;92856.53;;;0.81;78.30
3250;BME280;1637;42.020;23.992;2023-03-14T05:08:53;92865.84;;;1.22;75.01
3250;BME280;1637;42.020;23.992;2023-03-14T05:11:19;92865.66;;;1.15;74.08
3250;BME280;1637;42.020;23.992;2023-03-14T05:13:46;92866.34;;;1.27;73.31
3250;BME280;1637;42.020;23.992;2023-03-14T05:16:13;92867.63;;;1.18;73.77
3250;BME280;1637;42.020;23.992;2023-03-14T05:18:40;92870.09;;;1.26;72.99
3250;BME280;1637;42.020;23.992;2023-03-14T05:21:08;92860.09;;;0.88;73.78
3250;BME280;1637;42.020;23.992;2023-03-14T05:23:35;92864.06;;;0.66;74.79
3250;BME280;1637;42.020;23.992;2023-03-14T05:26:02;92859.66;;;0.03;78.07
3250;BME280;1637;42.020;23.992;2023-03-14T05:28:28;92862.81;;;-0.44;81.01
3250;BME280;1637;42.020;23.992;2023-03-14T05:30:55;92868.63;;;-0.26;86.76
3250;BME280;1637;42.020;23.992;2023-03-14T05:33:22;92863.34;;;0.54;86.00
3250;BME280;1637;42.020;23.992;2023-03-14T05:35:49;92865.56;;;1.74;87.56
3250;BME280;1637;42.020;23.992;2023-03-14T05:38:17;92878.03;;;2.86;73.31
3250;BME280;1637;42.020;23.992;2023-03-14T05:40:44;92869.34;;;3.76;64.63
3250;BME280;1637;42.020;23.992;2023-03-14T05:43:11;92873.84;;;3.50;64.59
3250;BME280;1637;42.020;23.992;2023-03-14T05:45:38;92868.66;;;3.34;64.67
3250;BME280;1637;42.020;23.992;2023-03-14T05:48:05;92866.41;;;2.90;64.07
3250;BME280;1637;42.020;23.992;2023-03-14T05:50:32;92861.34;;;2.62;66.88
3250;BME280;1637;42.020;23.992;2023-03-14T05:52:59;92861.16;;;2.94;64.34
3250;BME280;1637;42.020;23.992;2023-03-14T05:55:27;92861.09;;;4.38;60.20
3250;BME280;1637;42.020;23.992;2023-03-14T05:57:54;92825.94;;;3.35;61.36
3250;BME280;1637;42.020;23.992;2023-03-14T06:00:21;92852.78;;;3.34;63.37
3250;BME280;1637;42.020;23.992;2023-03-14T06:02:48;92812.88;;;2.78;63.60
3250;BME280;1637;42.020;23.992;2023-03-14T06:05:15;92848.63;;;3.10;64.02
3250;BME280;1637;42.020;23.992;2023-03-14T06:07:42;92871.91;;;3.69;61.98
3250;BME280;1637;42.020;23.992;2023-03-14T06:10:10;92856.91;;;4.33;59.16
3250;BME280;1637;42.020;23.992;2023-03-14T06:12:38;92852.13;;;4.46;58.89
3250;BME280;1637;42.020;23.992;2023-03-14T06:15:06;92859.38;;;5.20;57.82
3250;BME280;1637;42.020;23.992;2023-03-14T06:17:33;92862.44;;;6.13;54.64
3250;BME280;1637;42.020;23.992;2023-03-14T06:20:00;92862.88;;;7.13;51.23
3250;BME280;1637;42.020;23.992;2023-03-14T06:22:26;92859.88;;;7.25;52.40
3250;BME280;1637;42.020;23.992;2023-03-14T06:24:53;92853.41;;;7.44;51.43
3250;BME280;1637;42.020;23.992;2023-03-14T06:27:20;92860.28;;;7.91;49.78
3250;BME280;1637;42.020;23.992;2023-03-14T06:29:48;92840.88;;;5.30;56.02
3250;BME280;1637;42.020;23.992;2023-03-14T06:32:15;92840.03;;;6.14;53.82
3250;BME280;1637;42.020;23.992;2023-03-14T06:34:41;92840.81;;;5.67;54.60
3250;BME280;1637;42.020;23.992;2023-03-14T06:37:08;92841.03;;;6.68;52.78
3250;BME280;1637;42.020;23.992;2023-03-14T06:39:35;92833.63;;;7.59;50.50
3250;BME280;1637;42.020;23.992;2023-03-14T06:42:03;92827.50;;;8.12;48.27
3250;BME280;1637;42.020;23.992;2023-03-14T06:44:30;92824.72;;;9.38;46.23
3250;BME280;1637;42.020;23.992;2023-03-14T06:46:58;92825.66;;;9.14;45.70
3250;BME280;1637;42.020;23.992;2023-03-14T06:49:25;92826.38;;;7.95;48.32
3250;BME280;1637;42.020;23.992;2023-03-14T06:51:52;92823.28;;;8.39;48.58
3250;BME280;1637;42.020;23.992;2023-03-14T06:54:19;92817.56;;;8.16;49.16
3250;BME280;1637;42.020;23.992;2023-03-14T06:56:46;92823.69;;;9.21;46.89
3250;BME280;1637;42.020;23.992;2023-03-14T06:59:13;92819.44;;;10.31;45.52
3250;BME280;1637;42.020;23.992;2023-03-14T07:01:39;92819.06;;;9.81;46.58
3250;BME280;1637;42.020;23.992;2023-03-14T07:04:08;92820.44;;;9.51;45.26
3250;BME280;1637;42.020;23.992;2023-03-14T07:06:35;92811.28;;;8.90;46.79
3250;BME280;1637;42.020;23.992;2023-03-14T07:09:02;92800.81;;;8.22;47.76
3250;BME280;1637;42.020;23.992;2023-03-14T07:11:29;92796.66;;;8.07;49.60
3250;BME280;1637;42.020;23.992;2023-03-14T07:13:56;92804.41;;;8.89;47.70
3250;BME280;1637;42.020;23.992;2023-03-14T07:16:22;92810.25;;;11.27;43.27
3250;BME280;1637;42.020;23.992;2023-03-14T07:18:49;92806.06;;;11.53;41.68
3250;BME280;1637;42.020;23.992;2023-03-14T07:21:18;92806.28;;;11.08;42.40
3250;BME280;1637;42.020;23.992;2023-03-14T07:23:45;92800.69;;;10.99;42.93
3250;BME280;1637;42.020;23.992;2023-03-14T07:26:12;92796.44;;;12.68;38.84
3250;BME280;1637;42.020;23.992;2023-03-14T07:28:39;92804.41;;;13.84;36.28
3250;BME280;1637;42.020;23.992;2023-03-14T07:31:06;92803.97;;;13.69;36.30
3250;BME280;1637;42.020;23.992;2023-03-14T07:33:33;92801.03;;;13.96;35.34
3250;BME280;1637;42.020;23.992;2023-03-14T07:36:01;92795.41;;;13.90;35.76
3250;BME280;1637;42.020;23.992;2023-03-14T07:38:30;92777.03;;;12.18;38.96
3250;BME280;1637;42.020;23.992;2023-03-14T07:41:00;92779.75;;;13.69;36.53
3250;BME280;1637;42.020;23.992;2023-03-14T07:43:27;92785.34;;;13.42;37.07
3250;BME280;1637;42.020;23.992;2023-03-14T07:45:54;92794.97;;;14.08;35.21
3250;BME280;1637;42.020;23.992;2023-03-14T07:48:21;92786.84;;;14.40;34.36
3250;BME280;1637;42.020;23.992;2023-03-14T07:50:50;92786.72;;;14.89;33.69
3250;BME280;1637;42.020;23.992;2023-03-14T07:53:18;92776.88;;;13.44;35.60
3250;BME280;1637;42.020;23.992;2023-03-14T07:55:46;92775.13;;;11.95;38.01
3250;BME280;1637;42.020;23.992;2023-03-14T07:58:13;92775.09;;;13.53;34.37
3250;BME280;1637;42.020;23.992;2023-03-14T08:00:40;92773.34;;;14.57;32.68
3250;BME280;1637;42.020;23.992;2023-03-14T08:03:07;92773.09;;;14.80;32.42
3250;BME280;1637;42.020;23.992;2023-03-14T08:05:34;92775.84;;;14.64;32.65
3250;BME280;1637;42.020;23.992;2023-03-14T08:08:02;92764.28;;;14.51;33.05
3250;BME280;1637;42.020;23.992;2023-03-14T08:10:28;92758.69;;;13.96;33.90
3250;BME280;1637;42.020;23.992;2023-03-14T08:12:58;92756.31;;;14.15;33.28
3250;BME280;1637;42.020;23.992;2023-03-14T08:15:25;92750.66;;;14.41;32.06
3250;BME280;1637;42.020;23.992;2023-03-14T08:17:52;92750.38;;;13.74;34.04
3250;BME280;1637;42.020;23.992;2023-03-14T08:20:20;92750.44;;;14.77;31.21
3250;BME280;1637;42.020;23.992;2023-03-14T08:22:47;92748.34;;;15.23;29.93
3250;BME280;1637;42.020;23.992;2023-03-14T08:25:14;92745.44;;;15.18;30.19
3250;BME280;1637;42.020;23.992;2023-03-14T08:27:42;92735.22;;;14.42;32.04
3250;BME280;1637;42.020;23.992;2023-03-14T08:30:12;92744.81;;;15.77;30.37
3250;BME280;1637;42.020;23.992;2023-03-14T08:32:39;92740.47;;;15.41;30.54
3250;BME280;1637;42.020;23.992;2023-03-14T08:35:07;92726.34;;;14.58;32.49
3250;BME280;1637;42.020;23.992;2023-03-14T08:37:35;92712.34;;;14.63;32.07
3250;BME280;1637;42.020;23.992;2023-03-14T08:40:02;92712.59;;;14.81;31.66
3250;BME280;1637;42.020;23.992;2023-03-14T08:42:31;92709.50;;;15.08;32.32
3250;BME280;1637;42.020;23.992;2023-03-14T08:44:58;92707.09;;;14.85;33.00
3250;BME280;1637;42.020;23.992;2023-03-14T08:47:27;92701.22;;;16.57;29.77
3250;BME280;1637;42.020;23.992;2023-03-14T08:49:54;92690.00;;;15.89;29.54
3250;BME280;1637;42.020;23.992;2023-03-14T08:52:20;92677.69;;;16.23;30.94
3250;BME280;1637;42.020;23.992;2023-03-14T08:54:47;92682.09;;;15.09;31.26
3250;BME280;1637;42.020;23.992;2023-03-14T08:57:14;92680.66;;;15.43;32.32
3250;BME280;1637;42.020;23.992;2023-03-14T08:59:41;92678.84;;;15.40;31.82
3250;BME280;1637;42.020;23.992;2023-03-14T09:02:09;92654.59;;;15.87;31.74
3250;BME280;1637;42.020;23.992;2023-03-14T09:04:38;92649.22;;;16.53;29.71
3250;BME280;1637;42.020;23.992;2023-03-14T09:07:05;92668.72;;;15.91;31.01
3250;BME280;1637;42.020;23.992;2023-03-14T09:09:32;92661.50;;;16.97;29.19
3250;BME280;1637;42.020;23.992;2023-03-14T09:11:59;92662.13;;;14.94;32.30
3250;BME280;1637;42.020;23.992;2023-03-14T09:14:25;92642.78;;;13.42;35.37
3250;BME280;1637;42.020;23.992;2023-03-14T09:16:52;92642.25;;;14.63;33.37
3250;BME280;1637;42.020;23.992;2023-03-14T09:19:19;92651.72;;;15.43;33.55
3250;BME280;1637;42.020;23.992;2023-03-14T09:21:47;92648.97;;;16.16;33.27
3250;BME280;1637;42.020;23.992;2023-03-14T09:24:14;92649.97;;;16.31;31.37
3250;BME280;1637;42.020;23.992;2023-03-14T09:26:41;92644.53;;;17.37;30.46
3250;BME280;1637;42.020;23.992;2023-03-14T09:29:08;92642.34;;;17.13;31.44
3250;BME280;1637;42.020;23.992;2023-03-14T09:31:35;92640.41;;;16.83;32.26
3250;BME280;1637;42.020;23.992;2023-03-14T09:34:02;92635.63;;;16.65;32.06
3250;BME280;1637;42.020;23.992;2023-03-14T09:36:29;92634.25;;;16.61;32.58
3250;BME280;1637;42.020;23.992;2023-03-14T09:38:57;92622.44;;;16.98;32.36
3250;BME280;1637;42.020;23.992;2023-03-14T09:41:26;92629.56;;;17.14;32.24
3250;BME280;1637;42.020;23.992;2023-03-14T09:44:00;92621.34;;;16.43;32.93
3250;BME280;1637;42.020;23.992;2023-03-14T09:46:29;92584.06;;;16.81;32.27
3250;BME280;1637;42.020;23.992;2023-03-14T09:48:57;92602.81;;;17.16;33.01
3250;BME280;1637;42.020;23.992;2023-03-14T09:51:24;92611.75;;;17.44;31.92
3250;BME280;1637;42.020;23.992;2023-03-14T09:53:52;92611.47;;;17.60;31.19
3250;BME280;1637;42.020;23.992;2023-03-14T09:56:22;92606.00;;;17.33;30.45
3250;BME280;1637;42.020;23.992;2023-03-14T09:58:53;92596.09;;;17.48;30.65
3250;BME280;1637;42.020;23.992;2023-03-14T10:01:24;92588.13;;;17.44;30.66
3250;BME280;1637;42.020;23.992;2023-03-14T10:03:54;92579.34;;;16.73;31.97
3250;BME280;1637;42.020;23.992;2023-03-14T10:06:23;92573.88;;;16.64;31.96
3250;BME280;1637;42.020;23.992;2023-03-14T10:08:52;92564.22;;;16.63;31.81
3250;BME280;1637;42.020;23.992;2023-03-14T10:11:21;92555.31;;;16.22;32.72
3250;BME280;1637;42.020;23.992;2023-03-14T10:13:50;92567.72;;;16.10;31.72
3250;BME280;1637;42.020;23.992;2023-03-14T10:16:28;92545.50;;;16.37;32.19
3250;BME280;1637;42.020;23.992;2023-03-14T10:19:01;92549.66;;;16.29;31.53
3250;BME280;1637;42.020;23.992;2023-03-14T10:21:31;92546.34;;;15.60;30.95
3250;BME280;1637;42.020;23.992;2023-03-14T10:24:09;92541.38;;;16.02;30.71
3250;BME280;1637;42.020;23.992;2023-03-14T10:26:38;92534.66;;;16.06;29.75
3250;BME280;1637;42.020;23.992;2023-03-14T10:29:09;92542.53;;;15.92;28.92
3250;BME280;1637;42.020;23.992;2023-03-14T10:31:47;92493.38;;;15.40;28.98
3250;BME280;1637;42.020;23.992;2023-03-14T10:34:16;92525.91;;;15.37;30.27
3250;BME280;1637;42.020;23.992;2023-03-14T10:36:44;92534.25;;;15.52;28.82
3250;BME280;1637;42.020;23.992;2023-03-14T10:39:25;92524.19;;;15.65;29.54
3250;BME280;1637;42.020;23.992;2023-03-14T10:41:56;92491.50;;;15.28;28.75
3250;BME280;1637;42.020;23.992;2023-03-14T10:44:28;92505.66;;;15.54;28.97
3250;BME280;1637;42.020;23.992;2023-03-14T10:46:58;92502.34;;;15.94;29.05
3250;BME280;1637;42.020;23.992;2023-03-14T10:49:28;92500.56;;;16.00;28.44
3250;BME280;1637;42.020;23.992;2023-03-14T10:51:55;92491.66;;;16.21;28.48
3250;BME280;1637;42.020;23.992;2023-03-14T10:54:22;92490.97;;;15.99;28.88
3250;BME280;1637;42.020;23.992;2023-03-14T10:56:59;92459.94;;;15.60;29.40
3250;BME280;1637;42.020;23.992;2023-03-14T10:59:27;92479.22;;;15.93;29.52
3250;BME280;1637;42.020;23.992;2023-03-14T11:01:58;92474.78;;;16.39;30.72
3250;BME280;1637;42.020;23.992;2023-03-14T11:04:43;92462.78;;;16.09;29.10
3250;BME280;1637;42.020;23.992;2023-03-14T11:07:18;92453.28;;;15.52;29.88
3250;BME280;1637;42.020;23.992;2023-03-14T11:09:55;92453.50;;;15.79;29.30
3250;BME280;1637;42.020;23.992;2023-03-14T11:12:35;92444.75;;;16.06;29.69
3250;BME280;1637;42.020;23.992;2023-03-14T11:15:11;92441.53;;;15.89;29.04
3250;BME280;1637;42.020;23.992;2023-03-14T11:17:50;92431.56;;;16.08;29.07
3250;BME280;1637;42.020;23.992;2023-03-14T11:20:32;92421.09;;;15.79;29.12
3250;BME280;1637;42.020;23.992;2023-03-14T11:23:09;92413.19;;;15.63;29.37
3250;BME280;1637;42.020;23.992;2023-03-14T11:25:43;92411.03;;;16.10;29.82
3250;BME280;1637;42.020;23.992;2023-03-14T11:28:18;92406.88;;;16.28;28.46
3250;BME280;1637;42.020;23.992;2023-03-14T11:30:51;92398.31;;;16.20;28.61
3250;BME280;1637;42.020;23.992;2023-03-14T11:33:22;92391.75;;;16.39;28.46
3250;BME280;1637;42.020;23.992;2023-03-14T11:35:57;92378.34;;;16.18;27.94
3250;BME280;1637;42.020;23.992;2023-03-14T11:38:30;92373.78;;;16.05;29.38
3250;BME280;1637;42.020;23.992;2023-03-14T11:40:59;92372.25;;;16.63;27.37
3250;BME280;1637;42.020;23.992;2023-03-14T11:43:29;92369.00;;;16.86;27.79
3250;BME280;1637;42.020;23.992;2023-03-14T11:46:03;92318.31;;;16.50;27.35
3250;BME280;1637;42.020;23.992;2023-03-14T11:48:36;92350.56;;;16.26;27.79
3250;BME280;1637;42.020;23.992;2023-03-14T11:51:08;92336.22;;;16.66;27.96
3250;BME280;1637;42.020;23.992;2023-03-14T11:53:45;92334.69;;;16.46;29.14
3250;BME280;1637;42.020;23.992;2023-03-14T11:56:19;92335.94;;;16.73;28.79
3250;BME280;1637;42.020;23.992;2023-03-14T11:58:57;92329.34;;;16.83;27.33
3250;BME280;1637;42.020;23.992;2023-03-14T12:01:32;92329.63;;;16.94;28.07
3250;BME280;1637;42.020;23.992;2023-03-14T12:04:04;92316.72;;;16.80;27.25
3250;BME280;1637;42.020;23.992;2023-03-14T12:06:38;92314.00;;;16.71;28.69
3250;BME280;1637;42.020;23.992;2023-03-14T12:09:08;92309.47;;;17.13;27.83
3250;BME280;1637;42.020;23.992;2023-03-14T12:11:40;92305.25;;;17.12;28.51
3250;BME280;1637;42.020;23.992;2023-03-14T12:14:28;92302.84;;;17.14;28.99
3250;BME280;1637;42.020;23.992;2023-03-14T12:16:57;92298.47;;;17.26;28.72
3250;BME280;1637;42.020;23.992;2023-03-14T12:19:30;92293.56;;;16.88;28.08
3250;BME280;1637;42.020;23.992;2023-03-14T12:22:01;92271.03;;;17.00;28.06
3250;BME280;1637;42.020;23.992;2023-03-14T12:24:34;92285.91;;;16.87;27.57
3250;BME280;1637;42.020;23.992;2023-03-14T12:27:03;92281.09;;;16.54;28.85
3250;BME280;1637;42.020;23.992;2023-03-14T12:29:59;92274.19;;;16.35;27.92
3250;BME280;1637;42.020;23.992;2023-03-14T12:32:27;92273.28;;;16.56;27.90
3250;BME280;1637;42.020;23.992;2023-03-14T12:34:53;92266.22;;;16.40;28.70
3250;BME280;1637;42.020;23.992;2023-03-14T12:37:27;92256.00;;;16.26;28.04
3250;BME280;1637;42.020;23.992;2023-03-14T12:40:03;92255.22;;;16.07;28.46
3250;BME280;1637;42.020;23.992;2023-03-14T12:42:43;92248.81;;;15.65;30.12
3250;BME280;1637;42.020;23.992;2023-03-14T12:45:23;92220.81;;;15.40;29.36
3250;BME280;1637;42.020;23.992;2023-03-14T12:47:56;92249.31;;;15.41;30.05
3250;BME280;1637;42.020;23.992;2023-03-14T12:50:31;92246.59;;;15.32;30.67
3250;BME280;1637;42.020;23.992;2023-03-14T12:55:53;92249.63;;;15.12;30.54
3250;BME280;1637;42.020;23.992;2023-03-14T12:58:28;92251.22;;;14.79;30.59
3250;BME280;1637;42.020;23.992;2023-03-14T13:01:01;92239.19;;;14.93;30.73
3250;BME280;1637;42.020;23.992;2023-03-14T13:03:38;92235.00;;;14.70;31.01
3250;BME280;1637;42.020;23.992;2023-03-14T13:06:08;92212.50;;;14.64;31.41
3250;BME280;1637;42.020;23.992;2023-03-14T13:08:38;92225.88;;;14.98;30.96
3250;BME280;1637;42.020;23.992;2023-03-14T13:11:08;92233.47;;;15.22;31.52
3250;BME280;1637;42.020;23.992;2023-03-14T13:13:40;92211.22;;;14.77;30.28
3250;BME280;1637;42.020;23.992;2023-03-14T13:16:14;92221.84;;;14.72;30.79
3250;BME280;1637;42.020;23.992;2023-03-14T13:18:43;92214.13;;;14.83;31.04
3250;BME280;1637;42.020;23.992;2023-03-14T13:21:13;92223.41;;;14.60;31.06
3250;BME280;1637;42.020;23.992;2023-03-14T13:23:54;92210.75;;;14.70;30.79